Time;durP1;ratioP1;P1;durP2;ratioP2;P2;SDS_P1;SDS_P2;PMS_P1;PMS_P2;Temp;Humidity;BMP_temperature;BMP_pressure;BME280_temperature;BME280_humidity;BME280_pressure;Samples;Min_cycle;Max_cycle;Signal;HPM_P1;HPM_P2
2022/08/28 00:01:05;;;;;;;31.45;7.03;;;13.10;99.90;;;;;;4930377;28;20043;-72
2022/08/28 00:03:31;;;;;;;24.27;6.97;;;13.00;99.90;;;;;;4927908;29;20086;-72
2022/08/28 00:05:58;;;;;;;28.40;6.70;;;13.10;99.90;;;;;;4923011;29;20515;-72
2022/08/28 00:08:25;;;;;;;32.10;7.15;;;13.10;99.90;;;;;;4920638;28;20066;-79
2022/08/28 00:10:51;;;;;;;21.40;6.75;;;13.00;99.90;;;;;;4953442;28;20102;-72
2022/08/28 00:13:20;;;;;;;24.70;6.38;;;12.90;99.90;;;;;;4953479;29;20503;-72
2022/08/28 00:15:49;;;;;;;27.50;5.82;;;13.00;99.90;;;;;;4954212;29;20448;-73
2022/08/28 00:18:16;;;;;;;21.63;5.82;;;13.00;99.90;;;;;;4955087;29;20047;-74
2022/08/28 00:20:42;;;;;;;24.48;5.78;;;12.90;99.90;;;;;;4952054;29;20055;-74
2022/08/28 00:23:08;;;;;;;19.27;5.65;;;12.90;99.90;;;;;;4953229;28;20055;-73
2022/08/28 00:25:35;;;;;;;25.50;6.18;;;12.90;99.90;;;;;;4937187;29;20054;-71
2022/08/28 00:28:03;;;;;;;27.58;5.95;;;12.90;99.90;;;;;;4936080;28;20059;-71
2022/08/28 00:30:42;;;;;;;18.52;5.38;;;12.90;99.90;;;;;;4954255;29;20479;-73
2022/08/28 00:33:12;;;;;;;27.38;6.07;;;12.90;99.90;;;;;;4936983;29;20057;-71
2022/08/28 00:35:40;;;;;;;22.27;5.38;;;12.90;99.90;;;;;;4921605;29;20058;-71
2022/08/28 00:38:07;;;;;;;26.17;5.70;;;12.90;99.90;;;;;;4953954;29;20066;-73
2022/08/28 00:40:33;;;;;;;24.05;5.75;;;12.90;99.90;;;;;;4953606;28;20054;-73
2022/08/28 00:43:01;;;;;;;26.53;5.57;;;12.80;99.90;;;;;;4952279;28;20122;-72
2022/08/28 00:45:27;;;;;;;31.65;5.75;;;12.80;99.90;;;;;;4954147;28;20058;-76
2022/08/28 00:47:52;;;;;;;26.70;5.43;;;12.80;99.90;;;;;;4936935;29;20051;-73
2022/08/28 00:50:22;;;;;;;27.70;5.45;;;12.80;99.90;;;;;;4937437;28;20208;-72
2022/08/28 00:52:51;;;;;;;18.45;5.28;;;12.80;99.90;;;;;;4934734;29;20063;-75
2022/08/28 00:55:22;;;;;;;20.80;5.30;;;12.80;99.90;;;;;;4936790;28;20121;-76
2022/08/28 00:57:52;;;;;;;17.42;4.90;;;12.80;99.90;;;;;;4920440;29;20063;-78
2022/08/28 01:00:39;;;;;;;23.42;6.15;;;12.70;99.90;;;;;;4936934;29;20067;-71
2022/08/28 01:03:05;;;;;;;22.98;5.57;;;12.70;99.90;;;;;;4952364;28;20489;-73
2022/08/28 01:05:33;;;;;;;25.85;6.10;;;12.70;99.90;;;;;;4920653;29;20043;-81
2022/08/28 01:07:59;;;;;;;22.40;5.82;;;12.70;99.90;;;;;;4936349;29;20423;-74
2022/08/28 01:10:28;;;;;;;29.13;6.20;;;12.60;99.90;;;;;;4936047;29;20132;-72
2022/08/28 01:12:55;;;;;;;24.88;5.50;;;12.60;99.90;;;;;;4951889;28;20043;-72
2022/08/28 01:15:27;;;;;;;17.42;5.13;;;12.60;99.90;;;;;;4935869;29;20385;-71
2022/08/28 01:17:59;;;;;;;22.10;5.57;;;12.60;99.90;;;;;;4936377;29;20055;-71
2022/08/28 01:20:28;;;;;;;24.13;6.30;;;12.50;99.90;;;;;;4951472;28;20051;-73
2022/08/28 01:23:08;;;;;;;22.17;5.15;;;12.50;99.90;;;;;;4950847;28;20103;-71
2022/08/28 01:25:37;;;;;;;21.77;5.70;;;12.60;99.90;;;;;;4936578;29;20403;-73
2022/08/28 01:28:05;;;;;;;25.15;5.57;;;12.60;99.90;;;;;;4953026;29;20110;-73
2022/08/28 01:30:32;;;;;;;22.38;6.43;;;12.60;99.90;;;;;;4953891;29;20047;-74
2022/08/28 01:32:57;;;;;;;23.63;6.60;;;12.50;99.90;;;;;;4935737;29;20043;-73
2022/08/28 01:35:27;;;;;;;23.65;5.75;;;12.50;99.90;;;;;;4936920;29;20491;-71
2022/08/28 01:37:54;;;;;;;24.73;5.97;;;12.50;99.90;;;;;;4935300;29;20062;-72
2022/08/28 01:40:27;;;;;;;18.38;5.47;;;12.50;99.90;;;;;;4953828;29;20048;-72
2022/08/28 01:42:53;;;;;;;22.85;6.43;;;12.40;99.90;;;;;;4934207;29;20795;-72
2022/08/28 01:45:21;;;;;;;20.63;6.07;;;12.40;99.90;;;;;;4936869;29;20051;-72
2022/08/28 01:47:47;;;;;;;20.88;6.50;;;12.40;99.90;;;;;;4919807;29;20047;-72
2022/08/28 01:50:16;;;;;;;23.58;6.25;;;12.40;99.90;;;;;;4953167;28;20101;-72
2022/08/28 01:52:42;;;;;;;21.90;6.15;;;12.40;99.90;;;;;;4951722;29;20400;-72
2022/08/28 01:55:09;;;;;;;24.50;6.38;;;12.30;99.90;;;;;;4951737;28;20047;-75
2022/08/28 01:57:41;;;;;;;20.70;5.63;;;12.30;99.90;;;;;;4934314;28;20403;-77
2022/08/28 02:00:09;;;;;;;24.83;5.50;;;12.30;99.90;;;;;;4935237;29;20094;-70
2022/08/28 02:02:35;;;;;;;20.08;5.20;;;12.30;99.90;;;;;;4934722;29;20054;-72
2022/08/28 02:05:01;;;;;;;23.17;6.18;;;12.30;99.90;;;;;;4934365;29;20051;-73
2022/08/28 02:07:26;;;;;;;16.33;5.28;;;12.20;99.90;;;;;;4936332;29;20051;-72
2022/08/28 02:09:52;;;;;;;29.70;6.28;;;12.20;99.90;;;;;;4952180;29;20407;-69
2022/08/28 02:12:19;;;;;;;28.13;6.30;;;12.20;99.90;;;;;;4952438;29;20051;-72
2022/08/28 02:14:45;;;;;;;22.23;6.28;;;12.20;99.90;;;;;;4950288;29;20134;-76
2022/08/28 02:17:10;;;;;;;23.13;6.38;;;12.20;99.90;;;;;;4951988;28;20131;-74
2022/08/28 02:19:39;;;;;;;24.90;7.70;;;12.20;99.90;;;;;;4936078;29;20448;-81
2022/08/28 02:22:08;;;;;;;20.02;7.22;;;12.20;99.90;;;;;;4934108;29;20532;-72
2022/08/28 02:24:34;;;;;;;24.45;7.90;;;12.20;99.90;;;;;;4952456;29;20056;-72
2022/08/28 02:27:01;;;;;;;24.85;7.82;;;12.20;99.90;;;;;;4952740;29;20612;-79
2022/08/28 02:29:27;;;;;;;25.02;7.47;;;12.20;99.90;;;;;;4917708;29;20489;-75
2022/08/28 02:31:53;;;;;;;23.83;7.57;;;12.10;99.90;;;;;;4951460;28;20074;-71
2022/08/28 02:34:19;;;;;;;21.50;7.85;;;12.10;99.90;;;;;;4955429;29;20068;-72
2022/08/28 02:36:44;;;;;;;29.00;7.63;;;12.10;99.90;;;;;;4943076;29;20075;-72
2022/08/28 02:39:10;;;;;;;22.90;7.07;;;12.00;99.90;;;;;;4939328;29;20050;-72
2022/08/28 02:41:36;;;;;;;24.40;6.55;;;12.00;99.90;;;;;;4939810;29;20190;-72
2022/08/28 02:44:02;;;;;;;19.63;6.18;;;11.90;99.90;;;;;;4953861;28;20447;-72
2022/08/28 02:46:28;;;;;;;25.98;8.25;;;11.90;99.90;;;;;;4907989;29;20055;-77
2022/08/28 02:48:55;;;;;;;22.67;5.90;;;11.80;99.90;;;;;;4938677;29;20392;-72
2022/08/28 02:51:21;;;;;;;16.80;5.30;;;11.80;99.90;;;;;;4956616;29;20082;-71
2022/08/28 02:53:51;;;;;;;21.92;5.57;;;11.80;99.90;;;;;;4922468;29;20291;-72
2022/08/28 02:56:17;;;;;;;23.17;5.70;;;11.80;99.90;;;;;;4956332;28;20059;-72
2022/08/28 02:58:43;;;;;;;22.20;5.57;;;11.70;99.90;;;;;;4915040;29;20060;-81
2022/08/28 03:01:10;;;;;;;20.55;4.97;;;11.70;99.90;;;;;;4926304;29;20305;-72
2022/08/28 03:03:36;;;;;;;21.63;4.65;;;11.60;99.90;;;;;;4936769;29;20392;-71
2022/08/28 03:06:03;;;;;;;23.95;5.13;;;11.60;99.90;;;;;;4935721;29;20048;-71
2022/08/28 03:08:30;;;;;;;20.20;5.85;;;11.60;99.90;;;;;;4936481;29;20059;-71
2022/08/28 03:10:55;;;;;;;27.33;5.65;;;11.60;99.90;;;;;;4936448;29;20488;-74
2022/08/28 03:13:22;;;;;;;20.52;5.97;;;11.50;99.90;;;;;;4919227;29;20055;-72
2022/08/28 03:15:47;;;;;;;21.67;6.63;;;11.40;99.90;;;;;;4935530;29;20507;-71
2022/08/28 03:18:14;;;;;;;21.35;5.38;;;11.40;99.90;;;;;;4935985;29;20473;-72
2022/08/28 03:20:41;;;;;;;19.83;5.55;;;11.40;99.90;;;;;;4935707;29;20134;-72
2022/08/28 03:23:25;;;;;;;25.33;6.00;;;11.30;99.90;;;;;;4934239;29;20051;-77
2022/08/28 03:25:56;;;;;;;15.52;5.15;;;11.40;99.90;;;;;;4935781;29;20107;-72
2022/08/28 03:28:23;;;;;;;21.60;6.18;;;11.30;99.90;;;;;;4934539;29;20480;-72
2022/08/28 03:30:49;;;;;;;19.80;6.00;;;11.20;99.90;;;;;;4936298;29;20048;-72
2022/08/28 03:33:15;;;;;;;26.67;6.20;;;11.20;99.90;;;;;;4935477;29;20089;-72
2022/08/28 03:35:41;;;;;;;23.60;5.20;;;11.20;99.90;;;;;;4934775;29;20139;-72
2022/08/28 03:38:08;;;;;;;21.67;5.70;;;11.10;99.90;;;;;;4935427;29;20085;-72
2022/08/28 03:40:38;;;;;;;22.45;5.72;;;11.10;99.90;;;;;;4936212;29;20055;-71
2022/08/28 03:43:04;;;;;;;24.88;5.43;;;11.10;99.90;;;;;;4935323;29;20047;-72
2022/08/28 03:45:30;;;;;;;19.98;6.07;;;11.10;99.90;;;;;;4935170;29;20496;-71
2022/08/28 03:47:55;;;;;;;23.98;5.75;;;11.10;99.90;;;;;;4933648;29;20130;-71
2022/08/28 03:50:21;;;;;;;18.33;5.43;;;11.00;99.90;;;;;;4936668;29;20043;-72
2022/08/28 03:52:47;;;;;;;24.23;5.97;;;11.00;99.90;;;;;;4936449;29;20082;-80
2022/08/28 03:55:13;;;;;;;19.25;5.55;;;11.00;99.90;;;;;;4935215;29;20374;-71
2022/08/28 03:57:39;;;;;;;21.05;5.72;;;11.00;99.90;;;;;;4935612;29;20488;-72
2022/08/28 04:00:08;;;;;;;20.08;5.68;;;11.00;99.90;;;;;;4952995;28;20126;-71
2022/08/28 04:02:34;;;;;;;18.73;5.70;;;11.00;99.90;;;;;;4955482;29;20087;-73
2022/08/28 04:04:59;;;;;;;20.25;5.65;;;10.90;99.90;;;;;;4937662;29;20079;-71
2022/08/28 04:07:25;;;;;;;20.60;5.68;;;10.90;99.90;;;;;;4937295;29;20051;-71
2022/08/28 04:09:51;;;;;;;22.58;5.80;;;10.90;99.90;;;;;;4935219;29;20083;-72
2022/08/28 04:12:17;;;;;;;22.88;6.15;;;10.90;99.90;;;;;;4938238;29;20107;-75
2022/08/28 04:14:43;;;;;;;29.00;6.43;;;10.80;99.90;;;;;;4954312;29;20377;-72
2022/08/28 04:17:08;;;;;;;18.10;6.32;;;10.80;99.90;;;;;;4952530;28;20078;-72
2022/08/28 04:19:34;;;;;;;24.30;6.60;;;10.80;99.90;;;;;;4953741;28;20126;-73
2022/08/28 04:22:00;;;;;;;24.95;5.93;;;10.80;99.90;;;;;;4954182;28;20483;-71
2022/08/28 04:24:26;;;;;;;19.95;5.72;;;10.70;99.90;;;;;;4937015;29;20101;-72
2022/08/28 04:26:52;;;;;;;23.70;6.28;;;10.70;99.90;;;;;;4937452;29;20547;-72
2022/08/28 04:29:18;;;;;;;18.48;6.90;;;10.70;99.90;;;;;;4934776;29;20083;-73
2022/08/28 04:31:44;;;;;;;21.58;6.30;;;10.60;99.90;;;;;;4954822;29;20049;-72
2022/08/28 04:34:10;;;;;;;22.65;6.47;;;10.60;99.90;;;;;;4936112;29;20043;-72
2022/08/28 04:36:36;;;;;;;17.90;6.25;;;10.60;99.90;;;;;;4921917;29;20135;-72
2022/08/28 04:39:04;;;;;;;18.77;6.28;;;10.60;99.90;;;;;;4951462;28;20058;-72
2022/08/28 04:41:31;;;;;;;21.80;5.72;;;10.60;99.90;;;;;;4953824;29;20051;-72
2022/08/28 04:43:57;;;;;;;18.80;5.90;;;10.60;99.90;;;;;;4952961;28;20051;-72
2022/08/28 04:46:23;;;;;;;20.70;6.53;;;10.60;99.90;;;;;;4954729;29;20320;-72
2022/08/28 04:48:49;;;;;;;18.88;5.43;;;10.60;99.90;;;;;;4953385;29;20043;-71
2022/08/28 04:51:15;;;;;;;17.70;5.60;;;10.60;99.90;;;;;;4954103;29;20074;-76
2022/08/28 04:53:43;;;;;;;21.02;5.40;;;10.60;99.90;;;;;;4953925;29;20466;-72
2022/08/28 04:56:12;;;;;;;21.05;6.07;;;10.60;99.90;;;;;;4921231;29;20058;-71
2022/08/28 04:58:39;;;;;;;20.55;5.93;;;10.70;99.90;;;;;;4933991;29;20059;-74
2022/08/28 05:01:11;;;;;;;17.35;5.45;;;10.70;99.90;;;;;;4936775;29;20050;-71
2022/08/28 05:03:38;;;;;;;14.27;5.65;;;10.80;99.90;;;;;;4953900;29;20138;-73
2022/08/28 05:06:04;;;;;;;;;;;10.90;99.90;;;;;;4937106;29;20051;-71
2022/08/28 05:08:31;;;;;;;17.70;5.13;;;10.90;99.90;;;;;;4934478;29;20021;-73
2022/08/28 05:11:07;;;;;;;20.48;5.13;;;10.90;99.90;;;;;;4951572;29;20074;-76
2022/08/28 05:13:33;;;;;;;18.88;6.03;;;10.90;99.90;;;;;;4934639;29;20480;-72
2022/08/28 05:16:02;;;;;;;14.68;5.13;;;11.00;99.90;;;;;;4920489;29;20051;-72
2022/08/28 05:18:28;;;;;;;19.02;5.43;;;11.00;99.90;;;;;;4936253;29;20089;-73
2022/08/28 05:20:54;;;;;;;17.58;5.80;;;11.10;99.90;;;;;;4951175;28;20043;-79
2022/08/28 05:23:19;;;;;;;22.98;5.68;;;11.10;99.90;;;;;;4934708;29;20051;-72
2022/08/28 05:25:47;;;;;;;18.40;5.80;;;11.20;99.90;;;;;;4954009;29;20043;-72
2022/08/28 05:28:15;;;;;;;20.67;5.93;;;11.20;99.90;;;;;;4952589;29;20153;-72
2022/08/28 05:30:42;;;;;;;21.55;6.40;;;11.30;99.90;;;;;;4952114;29;20047;-71
2022/08/28 05:33:09;;;;;;;23.65;6.10;;;11.40;99.90;;;;;;4932410;29;20179;-73
2022/08/28 05:35:40;;;;;;;25.33;6.60;;;11.40;99.90;;;;;;4936799;29;20621;-71
2022/08/28 05:38:07;;;;;;;22.13;6.07;;;11.50;99.90;;;;;;4952671;28;20054;-71
2022/08/28 05:40:38;;;;;;;19.98;5.65;;;11.60;99.90;;;;;;4953837;29;20055;-71
2022/08/28 05:43:04;;;;;;;22.77;5.43;;;11.70;99.90;;;;;;4943782;29;20577;-79
2022/08/28 05:45:30;;;;;;;16.92;5.90;;;11.70;99.90;;;;;;4952317;29;20051;-71
2022/08/28 05:47:56;;;;;;;23.75;5.47;;;11.80;99.90;;;;;;4920781;29;20070;-78
2022/08/28 05:50:22;;;;;;;19.25;5.75;;;11.80;99.90;;;;;;4920333;29;20084;-71
2022/08/28 05:52:47;;;;;;;18.88;5.40;;;11.90;99.90;;;;;;4952758;28;20054;-72
2022/08/28 05:55:13;;;;;;;22.63;5.68;;;12.00;99.90;;;;;;4934835;29;20082;-72
2022/08/28 05:57:39;;;;;;;16.13;5.30;;;12.00;99.90;;;;;;4956522;29;20043;-70
2022/08/28 06:00:11;;;;;;;23.17;5.15;;;12.10;99.90;;;;;;4935103;29;20059;-72
2022/08/28 06:02:37;;;;;;;17.73;5.25;;;12.20;99.90;;;;;;4953725;29;20051;-72
2022/08/28 06:05:03;;;;;;;14.68;5.20;;;12.40;99.90;;;;;;4950772;28;20054;-72
2022/08/28 06:07:28;;;;;;;15.35;5.43;;;12.50;99.90;;;;;;4934619;29;20051;-73
2022/08/28 06:09:54;;;;;;;21.08;5.30;;;12.60;99.90;;;;;;4953422;29;20476;-71
2022/08/28 06:12:20;;;;;;;21.83;5.45;;;12.80;99.90;;;;;;4937398;29;20039;-72
2022/08/28 06:14:46;;;;;;;20.35;4.93;;;12.90;99.90;;;;;;4936554;29;20051;-71
2022/08/28 06:17:11;;;;;;;18.15;4.85;;;12.90;99.90;;;;;;4935256;29;20447;-71
2022/08/28 06:19:37;;;;;;;19.80;5.63;;;13.00;99.90;;;;;;4933124;29;20054;-70
2022/08/28 06:22:04;;;;;;;21.13;6.05;;;13.10;99.90;;;;;;4953281;29;20043;-73
2022/08/28 06:24:30;;;;;;;18.67;4.65;;;13.10;99.90;;;;;;4935267;29;20511;-71
2022/08/28 06:26:57;;;;;;;18.20;4.97;;;13.20;99.90;;;;;;4953500;29;20441;-71
2022/08/28 06:29:23;;;;;;;15.95;3.33;;;13.30;99.90;;;;;;4934690;29;20062;-70
2022/08/28 06:32:00;;;;;;;21.02;3.58;;;13.40;99.90;;;;;;4952633;28;20043;-70
2022/08/28 06:34:27;;;;;;;18.95;3.40;;;13.50;99.90;;;;;;4937220;29;20050;-71
2022/08/28 06:36:54;;;;;;;19.55;3.65;;;13.60;99.90;;;;;;4945849;29;20074;-71
2022/08/28 06:39:20;;;;;;;11.97;2.80;;;13.70;99.90;;;;;;4932284;29;20056;-72
2022/08/28 06:41:46;;;;;;;21.13;3.33;;;13.90;99.90;;;;;;4943499;28;20558;-71
2022/08/28 06:44:18;;;;;;;10.85;2.80;;;14.00;99.90;;;;;;4954841;29;20134;-70
2022/08/28 06:46:52;;;;;;;10.55;2.65;;;14.10;99.90;;;;;;4953383;28;20130;-71
2022/08/28 06:49:24;;;;;;;14.98;3.25;;;14.30;99.90;;;;;;4953476;29;20852;-71
2022/08/28 06:51:50;;;;;;;19.15;3.13;;;14.40;99.90;;;;;;4921580;29;20039;-70
2022/08/28 06:54:16;;;;;;;16.88;3.28;;;14.50;99.90;;;;;;4920258;29;20051;-71
2022/08/28 06:56:43;;;;;;;13.47;2.47;;;14.80;99.90;;;;;;4953732;29;20063;-71
2022/08/28 06:59:09;;;;;;;14.52;2.50;;;14.90;99.90;;;;;;4923169;29;20083;-70
2022/08/28 07:01:36;;;;;;;14.35;2.20;;;15.10;99.90;;;;;;4915041;29;20139;-71
2022/08/28 07:04:08;;;;;;;11.75;2.50;;;15.20;99.90;;;;;;4914837;29;20452;-70
2022/08/28 07:06:39;;;;;;;17.73;2.25;;;15.40;99.90;;;;;;4913209;29;21865;-74
2022/08/28 07:09:07;;;;;;;19.33;3.00;;;15.50;99.90;;;;;;4912220;29;20055;-80
2022/08/28 07:11:34;;;;;;;22.55;2.28;;;15.50;99.90;;;;;;4915033;29;20488;-72
2022/08/28 07:14:01;;;;;;;12.20;2.05;;;15.50;99.90;;;;;;4917834;29;20127;-73
2022/08/28 07:16:29;;;;;;;15.35;2.33;;;15.50;99.90;;;;;;4898394;29;20048;-73
2022/08/28 07:18:56;;;;;;;16.70;2.40;;;15.50;99.90;;;;;;4918409;29;20107;-72
2022/08/28 07:21:22;;;;;;;17.52;2.63;;;15.60;99.90;;;;;;4901678;29;20047;-74
2022/08/28 07:23:48;;;;;;;14.63;1.98;;;15.60;99.90;;;;;;4916658;29;20071;-74
2022/08/28 07:26:17;;;;;;;14.82;2.65;;;15.60;99.90;;;;;;4905568;29;20215;-73
2022/08/28 07:28:42;;;;;;;15.88;2.45;;;15.70;99.90;;;;;;4898423;29;20370;-72
2022/08/28 07:31:15;;;;;;;16.05;2.50;;;15.70;99.90;;;;;;4912440;29;20048;-80
2022/08/28 07:33:42;;;;;;;12.15;2.05;;;15.80;99.90;;;;;;4917835;29;20225;-78
2022/08/28 07:36:19;;;;;;;16.63;2.45;;;15.90;99.90;;;;;;4916917;29;20056;-79
2022/08/28 07:38:46;;;;;;;14.02;2.45;;;15.90;99.90;;;;;;4917805;29;20532;-75
2022/08/28 07:41:22;;;;;;;20.33;2.38;;;16.10;99.90;;;;;;4917742;29;20043;-74
2022/08/28 07:46:33;;;;;;;11.70;2.20;;;16.30;99.90;;;;;;4916064;29;20048;-74
2022/08/28 07:49:00;;;;;;;16.15;1.90;;;16.50;99.90;;;;;;4916254;29;20649;-73
2022/08/28 07:51:26;;;;;;;15.68;1.90;;;16.50;99.90;;;;;;4899947;29;20065;-72
2022/08/28 07:53:53;;;;;;;15.10;2.20;;;16.60;99.90;;;;;;4896767;29;20060;-70
2022/08/28 07:56:19;;;;;;;10.77;2.00;;;16.80;99.90;;;;;;4915649;29;20052;-73
2022/08/28 07:58:46;;;;;;;14.38;1.83;;;16.90;99.90;;;;;;4933585;29;20130;-70
2022/08/28 08:01:12;;;;;;;;;;;17.00;99.90;;;;;;4955711;28;20475;-79
2022/08/28 08:03:38;;;;;;;12.47;1.77;;;17.00;99.90;;;;;;4938213;29;19931;-72
2022/08/28 08:06:04;;;;;;;12.25;1.95;;;17.10;99.90;;;;;;4954181;28;20067;-74
2022/08/28 08:08:32;;;;;;;11.73;1.77;;;17.20;99.90;;;;;;4955231;29;20130;-73
2022/08/28 08:11:21;;;;;;;14.27;1.75;;;17.20;99.90;;;;;;4957008;29;20138;-72
2022/08/28 08:13:47;;;;;;;13.35;1.30;;;17.30;99.90;;;;;;4953020;28;20054;-71
2022/08/28 08:16:17;;;;;;;14.95;1.50;;;17.50;99.90;;;;;;4951152;28;20043;-81
2022/08/28 08:18:43;;;;;;;9.98;1.80;;;17.50;99.90;;;;;;4937667;29;20137;-73
2022/08/28 08:21:12;;;;;;;16.40;2.00;;;17.60;99.90;;;;;;4938197;29;20083;-71
2022/08/28 08:23:39;;;;;;;12.00;1.50;;;17.70;99.90;;;;;;4952541;29;20287;-76
2022/08/28 08:26:08;;;;;;;12.70;1.67;;;18.00;99.90;;;;;;4918756;29;20054;-70
2022/08/28 08:28:35;;;;;;;14.52;1.92;;;18.00;99.90;;;;;;4951097;29;20074;-71
2022/08/28 08:31:15;;;;;;;15.88;1.60;;;18.10;99.90;;;;;;4949602;28;20051;-70
2022/08/28 08:33:43;;;;;;;13.07;1.73;;;18.20;99.90;;;;;;4937458;29;20043;-71
2022/08/28 08:36:11;;;;;;;14.05;1.20;;;18.20;99.90;;;;;;4918308;29;20052;-74
2022/08/28 08:38:37;;;;;;;10.65;1.50;;;18.30;99.90;;;;;;4934489;29;20822;-77
2022/08/28 08:41:46;;;;;;;18.25;1.63;;;18.60;99.90;;;;;;4930774;29;20150;-72
2022/08/28 08:44:18;;;;;;;11.25;1.50;;;18.80;99.90;;;;;;4917733;29;20059;-71
2022/08/28 08:47:03;;;;;;;17.65;1.75;;;18.90;99.90;;;;;;4951365;28;20055;-76
2022/08/28 08:49:34;;;;;;;12.75;1.45;;;19.10;99.90;;;;;;4953928;29;20539;-72
2022/08/28 08:52:21;;;;;;;12.68;1.63;;;19.30;99.90;;;;;;4937836;29;20039;-72
2022/08/28 08:55:16;;;;;;;13.65;1.98;;;19.40;99.90;;;;;;4933524;29;20067;-70
2022/08/28 08:57:44;;;;;;;8.82;1.48;;;19.50;99.90;;;;;;4939497;29;20082;-71
2022/08/28 09:00:11;;;;;;;11.77;1.52;;;19.50;99.90;;;;;;4951560;28;20055;-73
2022/08/28 09:02:46;;;;;;;8.88;1.20;;;19.50;99.90;;;;;;4923276;29;20448;-72
2022/08/28 09:05:17;;;;;;;12.35;2.28;;;19.40;99.90;;;;;;4937239;29;20063;-70
2022/08/28 09:07:55;;;;;;;8.20;1.33;;;19.30;99.90;;;;;;4936592;29;20504;-74
2022/08/28 09:10:23;;;;;;;8.88;1.35;;;19.30;99.90;;;;;;4935215;29;20046;-78
2022/08/28 09:12:59;;;;;;;11.35;1.80;;;19.20;99.90;;;;;;4953791;29;20051;-79
2022/08/28 09:15:28;;;;;;;10.13;1.75;;;19.00;99.80;;;;;;4953669;29;20400;-73
2022/08/28 09:18:06;;;;;;;10.45;1.50;;;19.10;99.90;;;;;;4953981;29;20126;-73
2022/08/28 09:20:32;;;;;;;15.02;1.88;;;19.20;99.90;;;;;;4934851;29;20055;-74
2022/08/28 09:22:57;;;;;;;13.93;1.87;;;19.30;98.40;;;;;;4953302;29;20109;-73
2022/08/28 09:25:49;;;;;;;14.38;1.98;;;19.60;99.80;;;;;;4936012;29;20062;-73
2022/08/28 09:28:34;;;;;;;10.75;1.63;;;19.80;99.50;;;;;;4923384;29;20425;-73
2022/08/28 09:31:06;;;;;;;9.10;1.50;;;20.10;98.50;;;;;;4934279;29;20051;-74
2022/08/28 09:33:44;;;;;;;12.45;1.40;;;20.10;98.80;;;;;;4953145;29;20102;-71
2022/08/28 09:36:30;;;;;;;12.05;2.10;;;20.20;98.30;;;;;;4954766;29;20055;-72
2022/08/28 09:39:04;;;;;;;;;;;20.00;97.70;;;;;;4951252;28;20372;-71
2022/08/28 09:44:15;;;;;;;11.57;1.90;;;20.20;98.20;;;;;;4951966;29;20415;-72
2022/08/28 09:46:47;;;;;;;13.30;1.73;;;20.10;97.70;;;;;;4951935;29;20043;-71
2022/08/28 09:49:14;;;;;;;12.63;1.80;;;19.60;96.90;;;;;;4953624;29;20063;-72
2022/08/28 09:51:40;;;;;;;12.23;1.92;;;19.80;97.10;;;;;;4934019;28;20057;-72
2022/08/28 09:54:15;;;;;;;10.65;1.48;;;19.70;98.30;;;;;;4936661;29;20043;-73
2022/08/28 09:56:43;;;;;;;11.27;1.77;;;19.80;97.80;;;;;;4952941;29;20051;-71
2022/08/28 09:59:28;;;;;;;11.20;2.00;;;20.10;97.50;;;;;;4919838;29;20070;-72
2022/08/28 10:02:18;;;;;;;15.82;1.92;;;20.20;97.20;;;;;;4952274;29;20440;-74
2022/08/28 10:05:02;;;;;;;9.40;1.35;;;20.10;97.30;;;;;;4933296;29;20153;-74
2022/08/28 10:07:50;;;;;;;14.50;2.28;;;19.90;97.00;;;;;;4953039;28;20050;-79
2022/08/28 10:10:40;;;;;;;13.82;2.45;;;19.50;96.70;;;;;;4922318;29;20083;-73
2022/08/28 10:13:18;;;;;;;15.57;1.85;;;19.60;97.20;;;;;;4936326;29;20150;-75
2022/08/28 10:16:13;;;;;;;9.13;1.80;;;19.90;97.50;;;;;;4936663;29;20069;-72
2022/08/28 10:19:03;;;;;;;9.75;1.55;;;19.80;96.90;;;;;;4952758;28;20051;-80
2022/08/28 10:21:58;;;;;;;13.65;1.80;;;19.90;97.00;;;;;;4951981;28;20055;-76
2022/08/28 10:24:35;;;;;;;11.82;1.70;;;19.80;96.40;;;;;;4936129;29;20057;-72
2022/08/28 10:27:23;;;;;;;11.10;2.03;;;19.90;96.20;;;;;;4952349;28;20135;-72
2022/08/28 10:30:06;;;;;;;11.30;1.63;;;20.20;96.40;;;;;;4951730;29;20075;-71
2022/08/28 10:33:04;;;;;;;15.50;1.88;;;20.50;96.50;;;;;;4925936;29;20062;-71
2022/08/28 10:35:49;;;;;;;17.63;2.40;;;20.50;94.90;;;;;;4952917;28;20434;-77
2022/08/28 10:38:26;;;;;;;8.15;1.40;;;20.30;94.60;;;;;;4953246;29;20444;-70
2022/08/28 10:40:55;;;;;;;10.00;2.10;;;20.30;94.10;;;;;;4917624;29;20504;-72
2022/08/28 10:43:45;;;;;;;9.75;1.90;;;20.40;94.50;;;;;;4935609;29;20051;-72
2022/08/28 10:46:43;;;;;;;14.95;2.55;;;20.50;94.80;;;;;;4936451;29;20044;-70
2022/08/28 10:49:33;;;;;;;15.02;1.92;;;20.60;94.60;;;;;;4936505;29;20134;-73
2022/08/28 10:52:16;;;;;;;12.82;1.80;;;20.30;94.90;;;;;;4953963;28;20571;-72
2022/08/28 10:54:54;;;;;;;10.35;1.98;;;19.70;94.20;;;;;;4935925;29;20598;-72
2022/08/28 10:57:31;;;;;;;14.02;2.13;;;19.80;95.00;;;;;;4960693;29;20071;-71
2022/08/28 11:00:04;;;;;;;16.42;1.85;;;20.00;95.40;;;;;;4943188;29;20051;-74
2022/08/28 11:02:30;;;;;;;11.88;1.75;;;20.20;95.20;;;;;;4958235;29;20511;-70
2022/08/28 11:04:57;;;;;;;14.13;2.03;;;20.70;99.90;;;;;;4941816;29;20047;-72
2022/08/28 11:07:37;;;;;;;16.08;2.67;;;20.90;97.50;;;;;;4941182;29;20420;-72
2022/08/28 11:10:22;;;;;;;12.05;1.80;;;20.60;96.80;;;;;;4945304;29;20082;-70
2022/08/28 11:12:51;;;;;;;11.05;2.20;;;20.70;97.00;;;;;;4958891;29;20054;-76
2022/08/28 11:15:31;;;;;;;12.48;2.45;;;20.70;96.70;;;;;;4956603;28;20492;-74
2022/08/28 11:18:15;;;;;;;13.82;2.58;;;20.70;95.50;;;;;;4955908;29;20043;-74
2022/08/28 11:21:21;;;;;;;14.10;2.08;;;20.70;96.10;;;;;;4956243;29;20147;-71
2022/08/28 11:24:02;;;;;;;16.92;2.05;;;21.30;95.70;;;;;;4940614;29;20059;-72
2022/08/28 11:26:45;;;;;;;15.15;2.20;;;21.30;94.70;;;;;;4940603;29;20188;-73
2022/08/28 11:29:11;;;;;;;7.80;1.77;;;21.10;94.10;;;;;;4956396;28;20051;-71
2022/08/28 11:31:39;;;;;;;15.43;1.80;;;21.00;94.30;;;;;;4957829;28;20098;-83
2022/08/28 11:34:05;;;;;;;8.32;1.67;;;21.00;94.00;;;;;;4956050;28;20099;-72
2022/08/28 11:36:31;;;;;;;12.77;2.00;;;21.40;94.30;;;;;;4921564;29;20054;-80
2022/08/28 11:39:04;;;;;;;14.10;2.00;;;21.10;94.40;;;;;;4946792;28;20477;-73
2022/08/28 11:41:37;;;;;;;13.15;1.95;;;21.10;94.70;;;;;;4941307;29;20079;-73
2022/08/28 11:44:09;;;;;;;9.43;2.00;;;21.00;94.00;;;;;;4950876;28;20050;-71
2022/08/28 11:46:38;;;;;;;10.50;1.95;;;20.80;93.90;;;;;;4955442;28;20055;-74
2022/08/28 11:49:33;;;;;;;10.07;2.10;;;21.00;93.40;;;;;;4935596;29;20055;-72
2022/08/28 11:52:39;;;;;;;11.05;2.25;;;21.30;94.10;;;;;;4954613;28;20504;-70
2022/08/28 11:55:43;;;;;;;11.57;2.20;;;21.10;93.00;;;;;;4860852;29;20084;-71
2022/08/28 11:58:38;;;;;;;11.43;1.65;;;21.00;92.90;;;;;;4922829;29;20060;-72
2022/08/28 12:01:10;;;;;;;11.32;1.85;;;21.00;92.40;;;;;;4943668;29;20055;-73
2022/08/28 12:03:43;;;;;;;10.57;1.77;;;20.90;92.50;;;;;;4936533;29;20054;-71
2022/08/28 12:06:10;;;;;;;14.73;1.98;;;21.00;92.30;;;;;;4954682;28;20051;-72
2022/08/28 12:08:49;;;;;;;9.13;1.35;;;21.10;92.30;;;;;;4954283;29;20519;-70
2022/08/28 12:11:56;;;;;;;13.85;2.03;;;21.10;91.90;;;;;;4937938;29;20051;-71
2022/08/28 12:14:25;;;;;;;13.68;2.15;;;21.20;91.90;;;;;;4878282;29;20100;-75
2022/08/28 12:17:03;;;;;;;12.90;2.35;;;21.50;91.90;;;;;;4877225;29;20428;-73
2022/08/28 12:19:44;;;;;;;12.43;2.03;;;21.90;92.10;;;;;;4925622;28;20114;-71
2022/08/28 12:22:14;;;;;;;16.45;1.90;;;22.10;92.20;;;;;;4937003;29;20047;-73
2022/08/28 12:24:55;;;;;;;8.55;1.55;;;22.00;91.40;;;;;;4935660;29;20047;-70
2022/08/28 12:27:22;;;;;;;18.98;2.17;;;21.90;90.80;;;;;;4954445;29;20126;-72
2022/08/28 12:30:00;;;;;;;11.15;1.83;;;21.30;90.70;;;;;;4932700;28;20050;-78
2022/08/28 12:32:41;;;;;;;12.60;2.08;;;21.30;90.60;;;;;;4953328;29;20043;-71
2022/08/28 12:35:18;;;;;;;13.68;2.03;;;21.00;90.70;;;;;;4952425;29;20059;-73
2022/08/28 12:37:52;;;;;;;8.05;1.85;;;20.90;90.40;;;;;;4950989;28;20043;-80
2022/08/28 12:40:24;;;;;;;14.38;2.75;;;20.80;91.70;;;;;;4936001;28;20137;-71
2022/08/28 12:42:57;;;;;;;15.00;2.95;;;20.90;91.30;;;;;;4940391;29;20122;-77
2022/08/28 12:45:38;;;;;;;10.68;2.00;;;20.90;91.10;;;;;;4951904;28;20178;-71
2022/08/28 12:48:26;;;;;;;9.10;2.03;;;21.10;91.60;;;;;;4952912;29;20047;-70
2022/08/28 12:51:05;;;;;;;10.75;1.90;;;21.40;89.50;;;;;;4941241;29;20055;-72
2022/08/28 12:53:45;;;;;;;11.68;1.55;;;21.20;87.50;;;;;;4951850;29;20039;-72
2022/08/28 12:56:14;;;;;;;10.05;1.80;;;21.30;87.70;;;;;;4931222;29;20055;-71
2022/08/28 12:58:41;;;;;;;12.57;2.22;;;21.10;87.90;;;;;;4934095;28;20403;-72
2022/08/28 13:01:25;;;;;;;10.25;2.20;;;20.90;87.00;;;;;;4953250;29;20586;-73
2022/08/28 13:03:58;;;;;;;13.20;2.15;;;21.00;88.10;;;;;;4937694;29;20050;-71